createdAt,value
2022-12-03T00:00:55.239Z,101503.97
2022-12-03T00:04:01.600Z,101493.75
2022-12-03T00:07:10.269Z,101488.06
2022-12-03T00:10:18.045Z,101490.19
2022-12-03T00:13:26.542Z,101491.34
2022-12-03T00:16:33.537Z,101487.28
2022-12-03T00:19:40.612Z,101482.88
2022-12-03T00:22:47.368Z,101481.00
2022-12-03T00:25:53.957Z,101483.66
2022-12-03T00:29:01.966Z,101471.38
2022-12-03T00:32:09.625Z,101475.91
2022-12-03T00:35:16.199Z,101478.19
2022-12-03T00:38:22.882Z,101487.16
2022-12-03T00:41:29.380Z,101476.72
2022-12-03T00:44:36.118Z,101483.31
2022-12-03T00:47:42.976Z,101480.88
2022-12-03T00:50:50.317Z,101480.94
2022-12-03T00:53:58.026Z,101478.06
2022-12-03T00:57:05.654Z,101476.03
2022-12-03T01:00:14.934Z,101482.56
2022-12-03T01:03:21.597Z,101477.94
2022-12-03T01:06:29.007Z,101485.31
2022-12-03T01:09:35.398Z,101488.94
2022-12-03T01:12:42.158Z,101487.53
2022-12-03T01:15:51.959Z,101485.91
2022-12-03T01:18:57.750Z,101486.28
2022-12-03T01:22:04.169Z,101484.66
2022-12-03T01:25:12.221Z,101486.75
2022-12-03T01:28:19.147Z,101485.50
2022-12-03T01:31:43.976Z,101488.28
2022-12-03T01:34:53.602Z,101489.34
2022-12-03T01:37:59.611Z,101493.91
2022-12-03T01:41:11.547Z,101481.31
2022-12-03T01:44:27.490Z,101483.16
2022-12-03T01:47:38.974Z,101476.03
2022-12-03T01:50:46.181Z,101478.66
2022-12-03T01:53:52.350Z,101479.28
2022-12-03T01:56:59.954Z,101483.47
2022-12-03T02:00:08.652Z,101488.38
2022-12-03T02:03:26.341Z,101488.38
2022-12-03T02:06:33.046Z,101487.84
2022-12-03T02:09:40.387Z,101473.34
2022-12-03T02:13:04.355Z,101474.97
2022-12-03T02:16:12.354Z,101470.91
2022-12-03T02:19:27.548Z,101465.59
2022-12-03T02:22:49.735Z,101467.97
2022-12-03T02:25:56.562Z,101472.84
2022-12-03T02:29:03.698Z,101467.31
2022-12-03T02:32:10.231Z,101467.50
2022-12-03T02:35:21.976Z,101461.66
2022-12-03T02:38:30.616Z,101462.09
2022-12-03T02:41:55.280Z,101461.09
2022-12-03T02:45:13.974Z,101456.31
2022-12-03T02:48:26.194Z,101448.16
2022-12-03T02:51:34.025Z,101447.31
2022-12-03T02:54:40.377Z,101452.06
2022-12-03T02:57:49.533Z,101446.75
2022-12-03T03:00:57.113Z,101445.16
2022-12-03T03:04:04.960Z,101444.72
2022-12-03T03:07:11.776Z,101437.38
2022-12-03T03:10:22.746Z,101438.03
2022-12-03T03:13:32.967Z,101437.94
2022-12-03T03:16:38.678Z,101434.06
2022-12-03T03:19:45.064Z,101425.47
2022-12-03T03:22:50.976Z,101429.75
2022-12-03T03:26:02.465Z,101441.56
2022-12-03T03:29:08.253Z,101432.63
2022-12-03T03:32:15.107Z,101428.34
2022-12-03T03:35:22.316Z,101429.97
2022-12-03T03:38:31.451Z,101427.72
2022-12-03T03:41:40.967Z,101428.13
2022-12-03T03:44:49.335Z,101428.97
2022-12-03T03:47:56.296Z,101434.91
2022-12-03T03:51:09.318Z,101435.91
2022-12-03T03:54:16.581Z,101428.56
2022-12-03T03:57:22.754Z,101424.75
2022-12-03T04:00:29.469Z,101424.94
2022-12-03T04:03:36.117Z,101419.25
2022-12-03T04:06:43.660Z,101420.69
2022-12-03T04:09:50.285Z,101414.31
2022-12-03T04:12:56.677Z,101418.81
2022-12-03T04:16:04.570Z,101420.59
2022-12-03T04:19:11.139Z,101419.63
2022-12-03T04:22:35.920Z,101415.50
2022-12-03T04:26:01.512Z,101409.94
2022-12-03T04:29:09.609Z,101409.94
2022-12-03T04:32:34.222Z,101405.66
2022-12-03T04:35:44.676Z,101398.53
2022-12-03T04:39:01.819Z,101395.28
2022-12-03T04:42:09.592Z,101396.22
2022-12-03T04:45:17.239Z,101396.50
2022-12-03T04:48:24.990Z,101392.19
2022-12-03T04:51:31.997Z,101388.09
2022-12-03T04:54:39.947Z,101389.31
2022-12-03T04:57:46.250Z,101388.50
2022-12-03T05:00:53.852Z,101389.31
2022-12-03T05:04:00.030Z,101387.25
2022-12-03T05:07:07.519Z,101388.09
2022-12-03T05:10:14.665Z,101389.97
2022-12-03T05:13:20.435Z,101392.81
2022-12-03T05:16:28.962Z,101395.41
2022-12-03T05:19:55.442Z,101395.84
2022-12-03T05:23:01.616Z,101393.34
2022-12-03T05:26:08.295Z,101392.31
2022-12-03T05:29:15.046Z,101391.53
2022-12-03T05:32:21.452Z,101393.41
2022-12-03T05:35:27.790Z,101395.72
2022-12-03T05:38:34.691Z,101396.72
2022-12-03T05:42:16.638Z,101400.16
2022-12-03T05:45:31.369Z,101392.41
2022-12-03T05:48:38.821Z,101391.75
2022-12-03T05:51:46.086Z,101390.97
2022-12-03T05:54:53.347Z,101386.09
2022-12-03T05:58:00.676Z,101385.88
2022-12-03T06:01:08.718Z,101385.88
2022-12-03T06:04:15.109Z,101390.09
2022-12-03T06:07:22.151Z,101383.38
2022-12-03T06:10:29.801Z,101380.09
2022-12-03T06:13:36.134Z,101380.50
2022-12-03T06:16:42.158Z,101383.13
2022-12-03T06:19:48.903Z,101372.28
2022-12-03T06:22:54.853Z,101377.22
2022-12-03T06:26:00.644Z,101368.38
2022-12-03T06:29:06.742Z,101373.28
2022-12-03T06:32:12.730Z,101370.19
2022-12-03T06:35:18.586Z,101372.03
2022-12-03T06:38:25.087Z,101365.72
2022-12-03T06:41:31.680Z,101369.41
2022-12-03T06:44:38.689Z,101371.28
2022-12-03T06:47:45.297Z,101370.28
2022-12-03T06:50:53.147Z,101371.53
2022-12-03T06:54:00.437Z,101373.19
2022-12-03T06:57:07.270Z,101365.59
2022-12-03T07:00:13.480Z,101377.91
2022-12-03T07:03:19.364Z,101373.84
2022-12-03T07:06:25.839Z,101370.81
2022-12-03T07:09:32.197Z,101370.16
2022-12-03T07:12:38.992Z,101364.19
2022-12-03T07:15:45.230Z,101377.50
2022-12-03T07:18:52.204Z,101376.13
2022-12-03T07:22:01.530Z,101376.13
2022-12-03T07:25:09.161Z,101381.00
2022-12-03T07:28:15.863Z,101384.50
2022-12-03T07:31:22.764Z,101385.09
2022-12-03T07:34:30.152Z,101384.66
2022-12-03T07:37:36.053Z,101378.13
2022-12-03T07:40:41.789Z,101372.47
2022-12-03T07:43:48.899Z,101367.59
2022-12-03T07:46:55.562Z,101368.97
2022-12-03T07:50:01.292Z,101370.06
2022-12-03T07:53:07.353Z,101379.41
2022-12-03T07:58:02.228Z,101380.25
2022-12-03T08:01:08.426Z,101377.16
2022-12-03T08:04:15.241Z,101372.47
2022-12-03T08:07:20.942Z,101374.31
2022-12-03T08:10:26.990Z,101370.28
2022-12-03T08:13:35.441Z,101373.53
2022-12-03T08:16:42.936Z,101370.06
2022-12-03T08:19:48.800Z,101376.63
2022-12-03T08:22:56.226Z,101372.94
2022-12-03T08:26:02.565Z,101369.47
2022-12-03T08:29:13.600Z,101368.66
2022-12-03T08:32:19.737Z,101363.38
2022-12-03T08:35:31.121Z,101364.81
2022-12-03T08:38:36.986Z,101361.94
2022-12-03T08:42:01.452Z,101360.94
2022-12-03T08:45:29.528Z,101360.09
2022-12-03T08:48:39.256Z,101354.41
2022-12-03T08:51:46.764Z,101357.06
2022-12-03T08:54:55.597Z,101356.03
2022-12-03T08:58:07.240Z,101357.06
2022-12-03T09:01:12.738Z,101345.22
2022-12-03T09:04:32.411Z,101344.81
2022-12-03T09:07:37.874Z,101346.84
2022-12-03T09:10:43.905Z,101355.44
2022-12-03T09:13:50.511Z,101360.56
2022-12-03T09:16:56.889Z,101356.28
2022-12-03T09:20:02.862Z,101357.09
2022-12-03T09:23:08.893Z,101355.03
2022-12-03T09:26:14.313Z,101355.03
2022-12-03T09:29:20.565Z,101363.44
2022-12-03T09:32:27.297Z,101358.72
2022-12-03T09:35:32.738Z,101352.19
2022-12-03T09:38:41.926Z,101361.56
2022-12-03T09:41:51.870Z,101354.84
2022-12-03T09:44:57.790Z,101342.16
2022-12-03T09:48:06.571Z,101340.31
2022-12-03T09:51:12.678Z,101326.00
2022-12-03T09:54:25.046Z,101331.31
2022-12-03T09:57:31.814Z,101324.75
2022-12-03T10:00:37.894Z,101321.88
2022-12-03T10:03:53.632Z,101325.56
2022-12-03T10:06:59.913Z,101315.75
2022-12-03T10:10:08.229Z,101309.81
2022-12-03T10:13:25.597Z,101304.09
2022-12-03T10:16:32.373Z,101307.97
2022-12-03T10:19:40.032Z,101316.13
2022-12-03T10:23:04.516Z,101316.78
2022-12-03T10:26:11.275Z,101317.38
2022-12-03T10:29:25.802Z,101322.28
2022-12-03T10:32:43.238Z,101310.00
2022-12-03T10:35:48.973Z,101318.59
2022-12-03T10:39:24.572Z,101325.16
2022-12-03T10:42:34.256Z,101318.19
2022-12-03T10:45:41.563Z,101318.16
2022-12-03T10:49:16.227Z,101313.28
2022-12-03T10:52:43.781Z,101306.75
2022-12-03T10:55:52.648Z,101292.81
2022-12-03T10:59:00.708Z,101294.25
2022-12-03T11:02:23.246Z,101275.63
2022-12-03T11:05:31.120Z,101278.69
2022-12-03T11:08:38.558Z,101279.28
2022-12-03T11:11:46.855Z,101281.69
2022-12-03T11:14:57.228Z,101286.81
2022-12-03T11:18:03.810Z,101281.72
2022-12-03T11:21:16.136Z,101283.94
2022-12-03T11:24:23.822Z,101277.22
2022-12-03T11:27:30.028Z,101272.22
2022-12-03T11:30:51.821Z,101275.91
2022-12-03T11:34:35.234Z,101259.94
2022-12-03T11:37:41.804Z,101261.13
2022-12-03T11:41:07.974Z,101256.06
2022-12-03T11:44:32.812Z,101251.91
2022-12-03T11:48:01.715Z,101248.81
2022-12-03T11:51:17.041Z,101252.91
2022-12-03T11:54:25.050Z,101244.31
2022-12-03T11:57:37.658Z,101230.97
2022-12-03T12:01:10.248Z,101240.59
2022-12-03T12:04:34.319Z,101232.81
2022-12-03T12:07:43.453Z,101233.84
2022-12-03T12:10:53.280Z,101231.22
2022-12-03T12:14:13.045Z,101228.34
2022-12-03T12:17:35.979Z,101233.88
2022-12-03T12:20:43.028Z,101240.03
2022-12-03T12:23:49.152Z,101237.88
2022-12-03T12:27:20.023Z,101238.28
2022-12-03T12:30:28.584Z,101239.09
2022-12-03T12:33:35.869Z,101235.41
2022-12-03T12:36:42.417Z,101237.88
2022-12-03T12:39:49.552Z,101233.34
2022-12-03T12:43:27.278Z,101239.09
2022-12-03T12:46:50.433Z,101228.88
2022-12-03T12:49:58.548Z,101223.56
2022-12-03T12:53:20.290Z,101231.75
2022-12-03T12:56:30.756Z,101215.16
2022-12-03T12:59:36.482Z,101210.91
2022-12-03T13:03:02.741Z,101209.50
2022-12-03T13:06:15.935Z,101202.78
2022-12-03T13:09:26.353Z,101200.50
2022-12-03T13:12:32.076Z,101201.97
2022-12-03T13:15:50.782Z,101196.41
2022-12-03T13:19:01.625Z,101180.47
2022-12-03T13:22:20.326Z,101195.56
2022-12-03T13:25:59.404Z,101198.22
2022-12-03T13:29:15.044Z,101191.25
2022-12-03T13:32:23.914Z,101186.97
2022-12-03T13:35:32.551Z,101184.72
2022-12-03T13:38:38.261Z,101187.97
2022-12-03T13:42:02.374Z,101188.22
2022-12-03T13:45:13.973Z,101196.13
2022-12-03T13:48:29.306Z,101193.72
2022-12-03T13:51:44.648Z,101199.03
2022-12-03T13:54:56.346Z,101191.03
2022-12-03T13:58:02.016Z,101181.84
2022-12-03T14:01:08.116Z,101189.59
2022-12-03T14:04:13.875Z,101201.88
2022-12-03T14:07:19.566Z,101186.13
2022-12-03T14:10:25.052Z,101193.69
2022-12-03T14:13:31.182Z,101191.44
2022-12-03T14:16:37.353Z,101191.47
2022-12-03T14:19:43.791Z,101201.69
2022-12-03T14:22:49.590Z,101194.13
2022-12-03T14:25:55.644Z,101202.91
2022-12-03T14:29:05.845Z,101204.56
2022-12-03T14:32:14.302Z,101202.56
2022-12-03T14:35:20.211Z,101197.84
2022-12-03T14:38:25.382Z,101204.41
2022-12-03T14:41:49.204Z,101197.25
2022-12-03T14:44:54.896Z,101199.91
2022-12-03T14:48:00.684Z,101198.66
2022-12-03T14:51:06.357Z,101196.66
2022-12-03T14:54:12.475Z,101206.06
2022-12-03T14:57:18.113Z,101200.94
2022-12-03T15:00:24.455Z,101192.97
2022-12-03T15:03:30.286Z,101197.44
2022-12-03T15:06:35.885Z,101201.09
2022-12-03T15:09:41.603Z,101201.31
2022-12-03T15:12:47.661Z,101199.69
2022-12-03T15:15:53.956Z,101212.19
2022-12-03T15:18:59.438Z,101205.66
2022-12-03T15:22:04.973Z,101205.25
2022-12-03T15:25:11.310Z,101210.97
2022-12-03T15:28:26.566Z,101219.13
2022-12-03T15:31:56.793Z,101209.53
2022-12-03T15:35:04.905Z,101216.06
2022-12-03T15:38:12.072Z,101220.34
2022-12-03T15:41:30.146Z,101222.41
2022-12-03T15:44:36.048Z,101219.13
2022-12-03T15:47:42.284Z,101212.78
2022-12-03T15:50:48.509Z,101215.88
2022-12-03T15:54:07.793Z,101219.94
2022-12-03T15:57:14.076Z,101211.38
2022-12-03T16:00:20.008Z,101212.63
2022-12-03T16:03:25.291Z,101217.13
2022-12-03T16:06:33.479Z,101222.44
2022-12-03T16:09:39.380Z,101215.88
2022-12-03T16:12:45.095Z,101220.00
2022-12-03T16:15:51.161Z,101224.88
2022-12-03T16:18:56.958Z,101223.25
2022-12-03T16:22:30.392Z,101223.88
2022-12-03T16:25:41.966Z,101228.59
2022-12-03T16:28:50.564Z,101231.09
2022-12-03T16:31:56.282Z,101218.16
2022-12-03T16:35:02.046Z,101226.38
2022-12-03T16:38:07.124Z,101220.41
2022-12-03T16:41:12.390Z,101220.19
2022-12-03T16:44:32.172Z,101220.38
2022-12-03T16:47:37.753Z,101226.53
2022-12-03T16:50:43.500Z,101222.66
2022-12-03T16:53:49.519Z,101217.53
2022-12-03T16:57:05.534Z,101225.69
2022-12-03T17:00:13.541Z,101228.34
2022-12-03T17:03:19.556Z,101222.22
2022-12-03T17:06:25.118Z,101218.97
2022-12-03T17:09:30.553Z,101220.38
2022-12-03T17:13:07.585Z,101224.50
2022-12-03T17:16:05.553Z,101223.03
2022-12-03T17:19:11.426Z,101230.63
2022-12-03T17:22:17.455Z,101226.72
2022-12-03T17:25:23.750Z,101219.16
2022-12-03T17:28:29.621Z,101225.25
2022-12-03T17:31:41.457Z,101228.34
2022-12-03T17:34:47.944Z,101215.03
2022-12-03T17:37:53.612Z,101220.16
2022-12-03T17:40:59.946Z,101225.69
2022-12-03T17:44:10.727Z,101222.66
2022-12-03T17:47:17.944Z,101219.97
2022-12-03T17:50:24.284Z,101225.69
2022-12-03T17:53:34.288Z,101227.31
2022-12-03T17:56:43.838Z,101217.31
2022-12-03T17:59:49.409Z,101218.31
2022-12-03T18:02:55.690Z,101216.28
2022-12-03T18:06:03.001Z,101222.22
2022-12-03T18:09:08.670Z,101215.66
2022-12-03T18:12:14.547Z,101214.44
2022-12-03T18:15:27.045Z,101222.81
2022-12-03T18:18:35.283Z,101209.13
2022-12-03T18:21:41.257Z,101206.44
2022-12-03T18:24:51.587Z,101214.25
2022-12-03T18:28:03.429Z,101208.72
2022-12-03T18:31:19.468Z,101197.69
2022-12-03T18:34:25.909Z,101198.44
2022-12-03T18:37:33.484Z,101197.63
2022-12-03T18:40:40.913Z,101183.50
2022-12-03T18:43:47.192Z,101189.63
2022-12-03T18:46:54.461Z,101186.19
2022-12-03T18:50:15.350Z,101191.94
2022-12-03T18:53:27.476Z,101185.59
2022-12-03T18:56:40.606Z,101189.91
2022-12-03T18:59:58.180Z,101186.81
2022-12-03T19:03:12.678Z,101187.84
2022-12-03T19:06:23.837Z,101177.81
2022-12-03T19:09:59.265Z,101178.22
2022-12-03T19:13:09.914Z,101181.28
2022-12-03T19:16:52.478Z,101182.75
2022-12-03T19:20:36.418Z,101180.84
2022-12-03T19:24:16.116Z,101178.22
2022-12-03T19:27:21.062Z,101174.94
2022-12-03T19:30:31.783Z,101171.63
2022-12-03T19:33:43.550Z,101185.94
2022-12-03T19:36:51.379Z,101193.94
2022-12-03T19:40:12.181Z,101193.34
2022-12-03T19:43:19.132Z,101184.53
2022-12-03T19:46:31.542Z,101191.25
2022-12-03T19:49:40.578Z,101176.75
2022-12-03T19:52:53.062Z,101182.66
2022-12-03T19:56:10.876Z,101179.97
2022-12-03T19:59:19.922Z,101188.38
2022-12-03T20:02:32.641Z,101175.09
2022-12-03T20:06:07.796Z,101177.34
2022-12-03T20:09:19.001Z,101179.38
2022-12-03T20:12:29.720Z,101190.66
2022-12-03T20:15:40.569Z,101186.34
2022-12-03T20:18:52.307Z,101192.09
2022-12-03T20:22:05.111Z,101203.97
2022-12-03T20:25:23.049Z,101192.13
2022-12-03T20:28:29.578Z,101190.06
2022-12-03T20:31:35.661Z,101190.47
2022-12-03T20:34:44.833Z,101181.66
2022-12-03T20:37:55.618Z,101186.00
2022-12-03T20:41:15.935Z,101187.84
2022-12-03T20:44:23.966Z,101189.06
2022-12-03T20:47:37.584Z,101180.72
2022-12-03T20:50:47.425Z,101177.44
2022-12-03T20:54:10.877Z,101171.72
2022-12-03T20:57:27.665Z,101151.66
2022-12-03T21:00:36.894Z,101160.91
2022-12-03T21:03:47.102Z,101151.88
2022-12-03T21:06:54.907Z,101126.94
2022-12-03T21:10:05.537Z,101138.78
2022-12-03T21:13:22.165Z,101146.16
2022-12-03T21:17:10.441Z,101144.69
2022-12-03T21:20:22.665Z,101133.03
2022-12-03T21:23:37.739Z,101142.22
2022-12-03T21:26:45.731Z,101140.97
2022-12-03T21:30:12.020Z,101144.25
2022-12-03T21:33:18.484Z,101144.03
2022-12-03T21:36:41.499Z,101125.78
2022-12-03T21:39:51.213Z,101125.19
2022-12-03T21:43:08.990Z,101122.53
